createdAt,value
2023-04-20T00:00:47.668Z,101892.69
2023-04-20T00:03:14.897Z,101887.88
2023-04-20T00:05:41.953Z,101879.16
2023-04-20T00:08:11.776Z,101871.91
2023-04-20T00:10:38.789Z,101854.75
2023-04-20T00:13:08.188Z,101850.53
2023-04-20T00:15:37.662Z,101852.31
2023-04-20T00:18:05.121Z,101857.94
2023-04-20T00:20:32.632Z,101849.16
2023-04-20T00:22:59.528Z,101846.69
2023-04-20T00:25:30.414Z,101834.56
2023-04-20T00:28:03.200Z,101847.13
2023-04-20T00:30:30.056Z,101838.72
2023-04-20T00:32:59.293Z,101828.56
2023-04-20T00:35:26.198Z,101831.22
2023-04-20T00:37:53.147Z,101830.56
2023-04-20T00:40:20.520Z,101833.91
2023-04-20T00:42:49.446Z,101836.09
2023-04-20T00:45:16.259Z,101828.47
2023-04-20T00:47:43.098Z,101830.84
2023-04-20T00:50:11.417Z,101828.34
2023-04-20T00:52:43.339Z,101821.06
2023-04-20T00:55:10.823Z,101815.22
2023-04-20T00:57:37.665Z,101824.56
2023-04-20T01:00:07.363Z,101817.88
2023-04-20T01:02:37.051Z,101812.25
2023-04-20T01:05:06.781Z,101803.53
2023-04-20T01:07:33.638Z,101786.28
2023-04-20T01:10:00.445Z,101793.78
2023-04-20T01:12:27.370Z,101786.81
2023-04-20T01:14:54.221Z,101797.09
2023-04-20T01:17:22.250Z,101801.84
2023-04-20T01:19:51.374Z,101792.22
2023-04-20T01:22:24.466Z,101799.66
2023-04-20T01:24:51.280Z,101802.69
2023-04-20T01:27:18.236Z,101792.25
2023-04-20T01:29:46.070Z,101806.75
2023-04-20T01:32:13.421Z,101808.78
2023-04-20T01:34:40.687Z,101806.03
2023-04-20T01:37:08.276Z,101794.66
2023-04-20T01:39:39.276Z,101779.44
2023-04-20T01:42:07.090Z,101775.75
2023-04-20T01:44:33.930Z,101786.56
2023-04-20T01:47:02.914Z,101780.63
2023-04-20T01:49:29.956Z,101761.03
2023-04-20T01:51:59.313Z,101750.75
2023-04-20T01:54:31.685Z,101785.50
2023-04-20T01:57:02.439Z,101785.00
2023-04-20T01:59:31.823Z,101781.75
2023-04-20T02:01:58.874Z,101774.63
2023-04-20T02:04:28.128Z,101769.31
2023-04-20T02:06:55.103Z,101755.56
2023-04-20T02:09:22.012Z,101756.34
2023-04-20T02:11:51.371Z,101750.53
2023-04-20T02:14:20.868Z,101761.28
2023-04-20T02:16:47.964Z,101765.09
2023-04-20T02:19:14.970Z,101764.50
2023-04-20T02:21:44.398Z,101761.56
2023-04-20T02:24:13.871Z,101765.63
2023-04-20T02:26:42.917Z,101765.03
2023-04-20T02:29:12.823Z,101757.41
2023-04-20T02:31:39.687Z,101761.97
2023-04-20T02:34:09.545Z,101758.00
2023-04-20T02:36:37.023Z,101759.00
2023-04-20T02:39:04.521Z,101758.41
2023-04-20T02:41:33.867Z,101751.59
2023-04-20T02:44:01.055Z,101746.06
2023-04-20T02:46:28.037Z,101743.34
2023-04-20T02:48:57.725Z,101743.81
2023-04-20T02:51:24.700Z,101747.59
2023-04-20T02:53:51.571Z,101753.25
2023-04-20T02:56:19.018Z,101754.75
2023-04-20T02:58:48.723Z,101753.28
2023-04-20T03:01:17.746Z,101739.88
2023-04-20T03:03:45.044Z,101742.38
2023-04-20T03:06:12.171Z,101739.94
2023-04-20T03:08:39.094Z,101734.25
2023-04-20T03:11:06.090Z,101720.47
2023-04-20T03:13:33.101Z,101718.09
2023-04-20T03:16:02.314Z,101723.38
2023-04-20T03:18:32.766Z,101730.69
2023-04-20T03:20:59.654Z,101732.28
2023-04-20T03:23:26.780Z,101735.91
2023-04-20T03:25:54.135Z,101733.94
2023-04-20T03:28:21.181Z,101730.50
2023-04-20T03:30:50.296Z,101725.44
2023-04-20T03:33:17.236Z,101718.50
2023-04-20T03:35:46.307Z,101720.41
2023-04-20T03:38:13.320Z,101724.84
2023-04-20T03:40:40.412Z,101724.69
2023-04-20T03:43:07.462Z,101729.38
2023-04-20T03:45:36.993Z,101732.88
2023-04-20T03:48:04.383Z,101733.41
2023-04-20T03:50:35.802Z,101723.38
2023-04-20T03:53:02.856Z,101729.31
2023-04-20T03:55:29.985Z,101730.31
2023-04-20T03:57:57.050Z,101729.44
2023-04-20T04:00:28.577Z,101732.69
2023-04-20T04:02:55.775Z,101727.78
2023-04-20T04:05:26.073Z,101735.84
2023-04-20T04:07:53.262Z,101736.19
2023-04-20T04:10:20.882Z,101739.88
2023-04-20T04:12:50.198Z,101735.13
2023-04-20T04:15:19.553Z,101738.88
2023-04-20T04:17:46.579Z,101731.63
2023-04-20T04:20:14.191Z,101733.75
2023-04-20T04:22:41.996Z,101748.78
2023-04-20T04:25:09.408Z,101740.13
2023-04-20T04:27:37.688Z,101735.31
2023-04-20T04:30:06.358Z,101735.25
2023-04-20T04:32:34.671Z,101727.72
2023-04-20T04:35:02.176Z,101733.28
2023-04-20T04:37:31.692Z,101726.94
2023-04-20T04:40:02.903Z,101728.13
2023-04-20T04:42:31.198Z,101731.13
2023-04-20T04:45:02.164Z,101734.25
2023-04-20T04:47:32.444Z,101734.13
2023-04-20T04:50:00.929Z,101740.13
2023-04-20T04:52:31.180Z,101735.78
2023-04-20T04:54:58.264Z,101734.97
2023-04-20T04:57:26.433Z,101734.19
2023-04-20T04:59:53.878Z,101739.19
2023-04-20T05:02:23.530Z,101739.06
2023-04-20T05:04:53.694Z,101742.25
2023-04-20T05:07:23.032Z,101744.88
2023-04-20T05:09:50.088Z,101734.25
2023-04-20T05:12:17.158Z,101733.53
2023-04-20T05:14:44.078Z,101743.03
2023-04-20T05:17:14.257Z,101749.81
2023-04-20T05:19:41.155Z,101744.22
2023-04-20T05:22:08.107Z,101742.03
2023-04-20T05:24:37.312Z,101746.06
2023-04-20T05:27:04.449Z,101747.19
2023-04-20T05:29:32.443Z,101749.38
2023-04-20T05:31:59.361Z,101756.88
2023-04-20T05:34:28.730Z,101757.00
2023-04-20T05:36:56.952Z,101759.97
2023-04-20T05:39:26.322Z,101753.38
2023-04-20T05:41:54.373Z,101760.19
2023-04-20T05:44:21.268Z,101765.00
2023-04-20T05:46:50.498Z,101758.84
2023-04-20T05:49:20.014Z,101761.38
2023-04-20T05:51:46.974Z,101759.53
2023-04-20T05:54:13.919Z,101767.16
2023-04-20T05:56:41.000Z,101752.59
2023-04-20T05:59:08.919Z,101758.06
2023-04-20T06:01:35.975Z,101754.91
2023-04-20T06:04:07.724Z,101760.00
2023-04-20T06:06:34.852Z,101758.66
2023-04-20T06:09:04.896Z,101766.69
2023-04-20T06:11:34.611Z,101763.72
2023-04-20T06:14:01.926Z,101765.59
2023-04-20T06:16:31.993Z,101757.81
2023-04-20T06:19:03.595Z,101770.34
2023-04-20T06:21:31.782Z,101767.75
2023-04-20T06:24:01.025Z,101769.56
2023-04-20T06:26:32.947Z,101770.81
2023-04-20T06:29:02.366Z,101775.94
2023-04-20T06:31:29.324Z,101763.50
2023-04-20T06:33:58.792Z,101765.91
2023-04-20T06:36:25.791Z,101759.75
2023-04-20T06:38:52.801Z,101759.09
2023-04-20T06:41:19.700Z,101760.31
2023-04-20T06:43:49.633Z,101771.16
2023-04-20T06:46:21.523Z,101768.06
2023-04-20T06:48:48.443Z,101767.06
2023-04-20T06:51:18.319Z,101772.53
2023-04-20T06:53:45.360Z,101774.38
2023-04-20T06:56:16.759Z,101780.66
2023-04-20T06:58:43.666Z,101776.03
2023-04-20T07:01:10.811Z,101779.81
2023-04-20T07:03:40.302Z,101770.06
2023-04-20T07:06:11.929Z,101775.78
2023-04-20T07:08:39.882Z,101765.16
2023-04-20T07:11:06.811Z,101763.38
2023-04-20T07:13:34.216Z,101771.25
2023-04-20T07:16:04.509Z,101779.13
2023-04-20T07:18:33.348Z,101774.59
2023-04-20T07:21:02.269Z,101781.19
2023-04-20T07:23:31.398Z,101784.06
2023-04-20T07:25:58.335Z,101789.31
2023-04-20T07:28:25.222Z,101794.72
2023-04-20T07:30:54.167Z,101797.97
2023-04-20T07:33:24.191Z,101793.50
2023-04-20T07:35:51.556Z,101801.81
2023-04-20T07:38:18.540Z,101800.69
2023-04-20T07:40:48.180Z,101791.25
2023-04-20T07:43:15.224Z,101805.28
2023-04-20T07:45:42.686Z,101817.09
2023-04-20T07:48:09.842Z,101807.97
2023-04-20T07:50:36.744Z,101812.91
2023-04-20T07:53:03.734Z,101814.13
2023-04-20T07:55:30.958Z,101818.41
2023-04-20T07:58:02.979Z,101816.44
2023-04-20T08:00:30.246Z,101815.66
2023-04-20T08:02:57.356Z,101804.50
2023-04-20T08:05:25.246Z,101817.88
2023-04-20T08:07:52.309Z,101825.59
2023-04-20T08:10:19.214Z,101828.19
2023-04-20T08:12:47.024Z,101822.72
2023-04-20T08:15:14.563Z,101824.56
2023-04-20T08:17:41.830Z,101832.84
2023-04-20T08:20:10.807Z,101821.25
2023-04-20T08:22:39.025Z,101832.44
2023-04-20T08:25:06.250Z,101832.13
2023-04-20T08:27:33.246Z,101829.34
2023-04-20T08:30:00.751Z,101817.41
2023-04-20T08:32:27.789Z,101824.81
2023-04-20T08:34:55.969Z,101838.03
2023-04-20T08:37:25.863Z,101843.81
2023-04-20T08:39:55.517Z,101839.44
2023-04-20T08:42:22.434Z,101843.72
2023-04-20T08:44:53.454Z,101838.03
2023-04-20T08:47:21.450Z,101837.03
2023-04-20T08:49:53.597Z,101833.59
2023-04-20T08:52:20.520Z,101839.47
2023-04-20T08:54:56.640Z,101832.44
2023-04-20T08:57:26.004Z,101829.78
2023-04-20T08:59:59.284Z,101828.38
2023-04-20T09:02:26.265Z,101824.13
2023-04-20T09:05:05.176Z,101832.97
2023-04-20T09:07:37.852Z,101828.84
2023-04-20T09:10:07.420Z,101823.16
2023-04-20T09:12:43.806Z,101821.03
2023-04-20T09:15:29.105Z,101828.13
2023-04-20T09:18:00.981Z,101825.09
2023-04-20T09:20:33.683Z,101828.13
2023-04-20T09:23:21.110Z,101840.13
2023-04-20T09:25:53.140Z,101842.50
2023-04-20T09:28:20.706Z,101841.94
2023-04-20T09:30:49.386Z,101843.13
2023-04-20T09:33:16.339Z,101851.03
2023-04-20T09:35:47.363Z,101846.06
2023-04-20T09:38:17.653Z,101851.50
2023-04-20T09:40:44.717Z,101858.94
2023-04-20T09:43:19.317Z,101860.66
2023-04-20T09:45:49.192Z,101850.94
2023-04-20T09:48:19.665Z,101847.81
2023-04-20T09:50:50.680Z,101856.44
2023-04-20T09:53:25.358Z,101853.28
2023-04-20T09:55:56.824Z,101860.69
2023-04-20T09:58:23.837Z,101855.28
2023-04-20T10:00:53.383Z,101855.13
2023-04-20T10:03:21.715Z,101852.44
2023-04-20T10:05:55.592Z,101855.00
2023-04-20T10:08:24.541Z,101861.84
2023-04-20T10:10:52.256Z,101855.97
2023-04-20T10:13:19.498Z,101853.03
2023-04-20T10:15:46.667Z,101852.13
2023-04-20T10:18:25.078Z,101849.00
2023-04-20T10:21:05.241Z,101852.66
2023-04-20T10:23:32.219Z,101851.28
2023-04-20T10:26:01.172Z,101853.81
2023-04-20T10:28:44.944Z,101846.13
2023-04-20T10:31:16.804Z,101849.88
2023-04-20T10:33:56.679Z,101848.38
2023-04-20T10:36:33.883Z,101840.41
2023-04-20T10:39:13.268Z,101843.13
2023-04-20T10:41:55.661Z,101846.66
2023-04-20T10:44:22.530Z,101839.66
2023-04-20T10:46:51.407Z,101840.63
2023-04-20T10:49:20.953Z,101847.28
2023-04-20T10:51:51.473Z,101842.25
2023-04-20T10:54:19.890Z,101840.00
2023-04-20T10:56:54.392Z,101827.00
2023-04-20T10:59:23.600Z,101832.84
2023-04-20T11:01:52.088Z,101831.56
2023-04-20T11:04:19.434Z,101836.25
2023-04-20T11:06:53.136Z,101824.59
2023-04-20T11:09:22.656Z,101835.38
2023-04-20T11:12:05.656Z,101835.53
2023-04-20T11:14:35.887Z,101827.06
2023-04-20T11:17:03.133Z,101828.09
2023-04-20T11:19:33.773Z,101828.41
2023-04-20T11:22:02.314Z,101826.03
2023-04-20T11:24:31.408Z,101822.59
2023-04-20T11:27:01.850Z,101835.69
2023-04-20T11:29:42.634Z,101839.91
2023-04-20T11:32:11.974Z,101835.75
2023-04-20T11:34:39.863Z,101839.53
2023-04-20T11:37:13.778Z,101846.72
2023-04-20T11:39:43.142Z,101843.13
2023-04-20T11:42:09.992Z,101846.34
2023-04-20T11:44:41.266Z,101839.91
2023-04-20T11:47:08.131Z,101846.03
2023-04-20T11:49:37.910Z,101847.28
2023-04-20T11:52:05.210Z,101846.56
2023-04-20T11:54:34.928Z,101842.03
2023-04-20T11:57:02.523Z,101842.75
2023-04-20T11:59:29.340Z,101837.34
2023-04-20T12:01:58.781Z,101845.66
2023-04-20T12:04:26.136Z,101849.44
2023-04-20T12:06:53.280Z,101839.53
2023-04-20T12:09:20.570Z,101841.81
2023-04-20T12:11:52.276Z,101842.59
2023-04-20T12:14:21.230Z,101844.44
2023-04-20T12:16:57.433Z,101840.19
2023-04-20T12:19:25.671Z,101836.97
2023-04-20T12:21:54.663Z,101834.53
2023-04-20T12:24:24.089Z,101832.47
2023-04-20T12:26:53.485Z,101831.88
2023-04-20T12:29:22.633Z,101827.38
2023-04-20T12:31:52.131Z,101818.84
2023-04-20T12:34:19.293Z,101830.19
2023-04-20T12:36:46.335Z,101826.00
2023-04-20T12:39:13.198Z,101832.59
2023-04-20T12:41:44.856Z,101834.47
2023-04-20T12:44:14.304Z,101837.25
2023-04-20T12:46:41.340Z,101827.53
2023-04-20T12:49:08.246Z,101828.63
2023-04-20T12:51:37.640Z,101821.88
2023-04-20T12:54:04.648Z,101819.84
2023-04-20T12:56:31.463Z,101819.91
2023-04-20T12:58:58.277Z,101815.03
2023-04-20T13:01:25.480Z,101812.13
2023-04-20T13:03:55.046Z,101816.28
2023-04-20T13:06:25.190Z,101816.72
2023-04-20T13:08:52.062Z,101816.81
2023-04-20T13:11:24.890Z,101813.41
2023-04-20T13:13:56.474Z,101810.75
2023-04-20T13:16:25.939Z,101805.22
2023-04-20T13:18:55.424Z,101802.94
2023-04-20T13:21:22.506Z,101803.03
2023-04-20T13:23:52.800Z,101801.84
2023-04-20T13:26:20.864Z,101800.28
2023-04-20T13:28:47.934Z,101795.97
2023-04-20T13:31:14.815Z,101796.38
2023-04-20T13:33:41.682Z,101798.66
2023-04-20T13:36:09.222Z,101793.44
2023-04-20T13:38:39.110Z,101789.75
2023-04-20T13:41:10.886Z,101789.69
2023-04-20T13:43:40.277Z,101792.16
2023-04-20T13:46:07.183Z,101784.41
2023-04-20T13:48:36.652Z,101787.88
2023-04-20T13:51:06.078Z,101780.88
2023-04-20T13:53:35.186Z,101777.78
2023-04-20T13:56:05.008Z,101777.84
2023-04-20T13:58:31.903Z,101774.97
2023-04-20T14:00:58.801Z,101768.50
2023-04-20T14:03:26.525Z,101766.41
2023-04-20T14:05:53.718Z,101770.75
2023-04-20T14:08:25.231Z,101761.81
2023-04-20T14:10:55.569Z,101755.50
2023-04-20T14:13:23.771Z,101753.50
2023-04-20T14:15:51.307Z,101750.09
2023-04-20T14:18:18.335Z,101751.22
2023-04-20T14:20:49.796Z,101760.72
2023-04-20T14:23:19.269Z,101755.94
2023-04-20T14:25:48.296Z,101750.84
2023-04-20T14:28:16.807Z,101747.75
2023-04-20T14:30:46.880Z,101746.78
2023-04-20T14:33:13.792Z,101740.66
2023-04-20T14:35:40.751Z,101744.06
2023-04-20T14:38:07.647Z,101733.13
2023-04-20T14:40:34.575Z,101736.38
2023-04-20T14:43:01.510Z,101727.84
2023-04-20T14:45:28.677Z,101722.69
2023-04-20T14:47:57.107Z,101719.66
2023-04-20T14:50:29.716Z,101714.03
2023-04-20T14:52:56.611Z,101710.28
2023-04-20T14:55:26.015Z,101706.84
2023-04-20T14:57:56.112Z,101705.16
2023-04-20T15:00:28.296Z,101699.38
2023-04-20T15:03:00.624Z,101699.19
2023-04-20T15:05:30.370Z,101701.75
2023-04-20T15:08:00.052Z,101696.59
2023-04-20T15:10:29.142Z,101688.94
2023-04-20T15:12:56.009Z,101678.50
2023-04-20T15:15:26.671Z,101680.06
2023-04-20T15:18:04.049Z,101675.09
2023-04-20T15:20:30.940Z,101673.41
2023-04-20T15:22:58.432Z,101663.88
2023-04-20T15:25:25.406Z,101665.59
2023-04-20T15:27:52.759Z,101663.72
2023-04-20T15:30:21.053Z,101671.69
2023-04-20T15:32:50.282Z,101655.78
2023-04-20T15:35:21.804Z,101659.41
2023-04-20T15:37:48.749Z,101649.53
2023-04-20T15:40:17.205Z,101648.84
2023-04-20T15:42:49.507Z,101656.50
2023-04-20T15:45:16.443Z,101649.50
2023-04-20T15:47:45.952Z,101651.22
2023-04-20T15:50:17.098Z,101650.91
2023-04-20T15:52:49.542Z,101654.28
2023-04-20T15:55:17.030Z,101652.22
2023-04-20T15:57:44.499Z,101654.66
2023-04-20T16:00:13.492Z,101655.47
2023-04-20T16:02:43.506Z,101650.22
2023-04-20T16:05:13.090Z,101650.25
2023-04-20T16:07:42.159Z,101653.31
2023-04-20T16:10:10.944Z,101654.66
2023-04-20T16:12:38.238Z,101667.94
2023-04-20T16:15:06.011Z,101658.09
2023-04-20T16:17:33.203Z,101652.44
2023-04-20T16:20:00.142Z,101662.50
2023-04-20T16:22:27.028Z,101665.06
2023-04-20T16:24:54.057Z,101657.72
2023-04-20T16:27:23.528Z,101662.34
2023-04-20T16:29:50.582Z,101658.03
2023-04-20T16:32:17.437Z,101658.03
2023-04-20T16:34:44.392Z,101661.09
2023-04-20T16:37:11.809Z,101659.19
2023-04-20T16:39:39.410Z,101656.31
2023-04-20T16:42:08.989Z,101658.94
2023-04-20T16:44:42.014Z,101656.19
2023-04-20T16:47:11.319Z,101656.38
2023-04-20T16:49:38.735Z,101647.16
2023-04-20T16:52:05.662Z,101642.06
2023-04-20T16:54:34.639Z,101637.47
2023-04-20T16:57:04.043Z,101624.13
2023-04-20T16:59:30.905Z,101623.63
2023-04-20T17:01:57.799Z,101621.59
2023-04-20T17:04:27.565Z,101620.22
2023-04-20T17:06:54.462Z,101603.34
2023-04-20T17:09:24.899Z,101614.25
2023-04-20T17:11:56.167Z,101613.91
2023-04-20T17:14:23.041Z,101607.59
2023-04-20T17:16:54.210Z,101608.81
2023-04-20T17:19:24.354Z,101610.31
2023-04-20T17:21:51.249Z,101611.00
2023-04-20T17:24:18.404Z,101606.25
2023-04-20T17:26:46.449Z,101605.56
2023-04-20T17:29:13.699Z,101597.38
2023-04-20T17:31:43.411Z,101601.81
2023-04-20T17:34:10.544Z,101599.94
2023-04-20T17:36:37.407Z,101590.91
2023-04-20T17:39:04.444Z,101599.41
2023-04-20T17:41:35.624Z,101589.53
2023-04-20T17:44:04.734Z,101589.53
2023-04-20T17:46:31.701Z,101601.47
2023-04-20T17:48:58.579Z,101594.97
2023-04-20T17:51:25.568Z,101602.13
2023-04-20T17:53:52.408Z,101594.63
2023-04-20T17:56:19.255Z,101593.44
2023-04-20T17:58:46.618Z,101596.00
2023-04-20T18:01:15.641Z,101602.16
2023-04-20T18:03:44.954Z,101595.31
2023-04-20T18:06:11.859Z,101603.19
2023-04-20T18:08:38.729Z,101602.81
2023-04-20T18:11:08.012Z,101602.81
2023-04-20T18:13:37.163Z,101602.16
2023-04-20T18:16:07.917Z,101603.19
2023-04-20T18:18:35.531Z,101600.78
2023-04-20T18:21:05.090Z,101605.22
2023-04-20T18:23:32.500Z,101602.66
2023-04-20T18:26:02.395Z,101604.69
2023-04-20T18:28:29.452Z,101598.72
2023-04-20T18:30:59.092Z,101604.53
2023-04-20T18:33:26.438Z,101601.78
2023-04-20T18:35:53.426Z,101606.34
2023-04-20T18:38:22.782Z,101609.41
2023-04-20T18:40:49.645Z,101606.16
2023-04-20T18:43:16.541Z,101610.44
2023-04-20T18:45:43.495Z,101604.38
2023-04-20T18:48:10.980Z,101605.97
2023-04-20T18:50:40.990Z,101606.06
2023-04-20T18:53:08.015Z,101604.50
2023-04-20T18:55:37.373Z,101594.78
2023-04-20T18:58:06.396Z,101599.91
2023-04-20T19:00:35.579Z,101599.91
2023-04-20T19:03:02.732Z,101605.53
2023-04-20T19:05:30.829Z,101607.16
2023-04-20T19:07:57.763Z,101605.69
2023-04-20T19:10:31.915Z,101607.72
2023-04-20T19:12:58.777Z,101612.31
2023-04-20T19:15:25.878Z,101619.09
2023-04-20T19:17:55.693Z,101627.59
2023-04-20T19:20:24.329Z,101631.88
2023-04-20T19:22:51.270Z,101626.75
2023-04-20T19:25:20.827Z,101632.72
2023-04-20T19:27:47.685Z,101628.00
2023-04-20T19:30:14.756Z,101626.91
2023-04-20T19:32:43.824Z,101627.31
2023-04-20T19:35:13.308Z,101629.13
2023-04-20T19:37:41.232Z,101631.03
2023-04-20T19:40:10.905Z,101630.06
2023-04-20T19:42:40.615Z,101633.06
2023-04-20T19:45:10.838Z,101634.78
2023-04-20T19:47:42.539Z,101636.53
2023-04-20T19:50:15.173Z,101635.16
2023-04-20T19:52:44.090Z,101636.50
2023-04-20T19:55:11.138Z,101646.00
2023-04-20T19:57:40.246Z,101639.16
2023-04-20T20:00:08.866Z,101652.78
2023-04-20T20:02:37.491Z,101645.56
2023-04-20T20:05:07.762Z,101646.16
2023-04-20T20:07:37.134Z,101649.72
2023-04-20T20:10:07.202Z,101651.84
2023-04-20T20:12:36.738Z,101655.50
2023-04-20T20:15:04.869Z,101654.31
2023-04-20T20:17:34.342Z,101653.13
2023-04-20T20:20:05.856Z,101648.97
2023-04-20T20:22:33.704Z,101653.66
2023-04-20T20:25:05.208Z,101655.06
2023-04-20T20:27:32.105Z,101652.28
2023-04-20T20:30:01.237Z,101649.59
2023-04-20T20:32:31.368Z,101654.44
2023-04-20T20:34:58.219Z,101652.34
2023-04-20T20:37:28.241Z,101658.63
2023-04-20T20:40:00.729Z,101653.50
2023-04-20T20:42:30.345Z,101655.03
2023-04-20T20:45:02.636Z,101648.44
2023-04-20T20:47:30.825Z,101647.56
2023-04-20T20:50:00.655Z,101651.38
2023-04-20T20:52:27.564Z,101646.81
2023-04-20T20:54:54.386Z,101644.63
2023-04-20T20:57:23.500Z,101657.25
2023-04-20T20:59:53.406Z,101659.72
2023-04-20T21:02:23.798Z,101651.84
2023-04-20T21:04:50.719Z,101661.44
2023-04-20T21:07:20.350Z,101656.88
2023-04-20T21:09:52.688Z,101661.44
2023-04-20T21:12:24.150Z,101658.91
2023-04-20T21:14:52.276Z,101653.34
2023-04-20T21:17:22.284Z,101651.34
2023-04-20T21:19:49.244Z,101649.81
2023-04-20T21:22:20.057Z,101646.72
2023-04-20T21:24:46.951Z,101651.34
2023-04-20T21:27:16.006Z,101660.59
2023-04-20T21:29:42.874Z,101661.09
2023-04-20T21:32:11.984Z,101660.59
2023-04-20T21:34:39.006Z,101655.78
2023-04-20T21:37:11.030Z,101661.13
2023-04-20T21:39:38.017Z,101660.66
2023-04-20T21:42:05.188Z,101662.88
2023-04-20T21:44:32.122Z,101654.72
2023-04-20T21:47:02.507Z,101654.78
2023-04-20T21:49:32.271Z,101655.84
2023-04-20T21:52:01.378Z,101657.53
2023-04-20T21:54:28.320Z,101662.41
2023-04-20T21:56:59.700Z,101660.59
2023-04-20T21:59:26.660Z,101657.47
2023-04-20T22:01:59.050Z,101669.31
2023-04-20T22:04:27.213Z,101655.84
2023-04-20T22:06:55.482Z,101665.31
2023-04-20T22:09:25.834Z,101667.84
2023-04-20T22:11:53.645Z,101661.91
2023-04-20T22:14:20.588Z,101669.56
2023-04-20T22:16:47.996Z,101664.16
2023-04-20T22:19:16.245Z,101665.88
2023-04-20T22:21:43.669Z,101658.69
2023-04-20T22:24:12.810Z,101658.25
2023-04-20T22:26:39.825Z,101660.72
2023-04-20T22:29:09.717Z,101659.16
2023-04-20T22:31:38.710Z,101667.84
2023-04-20T22:34:05.572Z,101661.44
2023-04-20T22:36:32.537Z,101665.88
2023-04-20T22:39:02.459Z,101660.72
2023-04-20T22:41:31.816Z,101663.16
2023-04-20T22:43:58.668Z,101662.59
2023-04-20T22:46:25.586Z,101666.59
2023-04-20T22:48:56.638Z,101663.72
2023-04-20T22:51:23.537Z,101662.88
2023-04-20T22:53:50.584Z,101660.63
2023-04-20T22:56:19.716Z,101664.91
2023-04-20T22:58:46.518Z,101654.91
2023-04-20T23:01:15.752Z,101657.50
2023-04-20T23:03:42.673Z,101657.22
2023-04-20T23:06:11.195Z,101651.91
2023-04-20T23:08:39.776Z,101661.22
2023-04-20T23:11:06.878Z,101645.34
2023-04-20T23:13:34.297Z,101654.91
2023-04-20T23:16:01.182Z,101651.50
2023-04-20T23:18:28.058Z,101664.06
2023-04-20T23:20:54.949Z,101656.66
2023-04-20T23:23:21.766Z,101655.50
2023-04-20T23:25:48.605Z,101653.22
2023-04-20T23:28:15.608Z,101655.63
2023-04-20T23:30:47.439Z,101652.66
2023-04-20T23:33:14.316Z,101651.94
2023-04-20T23:35:43.686Z,101653.78
2023-04-20T23:38:10.597Z,101650.66
2023-04-20T23:40:40.007Z,101650.47
2023-04-20T23:43:06.965Z,101652.47
2023-04-20T23:45:36.427Z,101643.50
2023-04-20T23:48:03.320Z,101645.50
2023-04-20T23:50:33.014Z,101639.25
2023-04-20T23:53:02.125Z,101642.81
2023-04-20T23:55:29.104Z,101646.09
2023-04-20T23:57:58.247Z,101652.22
